Time;durP1;ratioP1;P1;durP2;ratioP2;P2;SDS_P1;SDS_P2;PMS_P1;PMS_P2;Temp;Humidity;BMP_temperature;BMP_pressure;BME280_temperature;BME280_humidity;BME280_pressure;Samples;Min_cycle;Max_cycle;Signal;HPM_P1;HPM_P2
2023/10/12 00:00:24;;;;;;;8.23;3.25;;;11.70;99.90;;;;;;5198633;28;20337;-59
2023/10/12 00:03:05;;;;;;;8.45;3.58;;;11.60;99.90;;;;;;5161483;28;20042;-59
2023/10/12 00:05:45;;;;;;;8.48;3.42;;;11.60;99.90;;;;;;5176842;28;20152;-59
2023/10/12 00:08:30;;;;;;;5.38;3.75;;;11.60;99.90;;;;;;5177643;28;20131;-59
2023/10/12 00:11:08;;;;;;;10.15;4.00;;;11.50;99.90;;;;;;5192851;28;20048;-61
2023/10/12 00:13:47;;;;;;;5.55;3.20;;;11.40;99.90;;;;;;5194269;28;20332;-59
2023/10/12 00:16:25;;;;;;;8.73;3.15;;;11.30;99.90;;;;;;5177654;28;20042;-61
2023/10/12 00:18:57;;;;;;;5.40;3.20;;;11.30;99.90;;;;;;5193689;28;20172;-59
2023/10/12 00:21:35;;;;;;;9.00;3.65;;;11.30;99.90;;;;;;5161869;28;20068;-61
2023/10/12 00:24:07;;;;;;;5.88;3.58;;;11.20;99.90;;;;;;5177687;28;20046;-59
2023/10/12 00:30:26;;;;;;;;;;;11.20;99.90;;;;;;5195871;28;20025;-59
2023/10/12 00:32:57;;;;;;;5.97;3.10;;;11.20;99.90;;;;;;5161154;28;19927;-61
2023/10/12 00:35:29;;;;;;;9.65;4.38;;;11.10;99.90;;;;;;5193337;28;20046;-61
2023/10/12 00:38:10;;;;;;;7.22;3.10;;;11.20;99.90;;;;;;5177275;28;20042;-59
2023/10/12 00:40:59;;;;;;;7.03;3.67;;;11.10;99.90;;;;;;5195119;28;20063;-60
2023/10/12 00:43:36;;;;;;;5.47;3.10;;;11.10;99.90;;;;;;5195521;28;20255;-60
2023/10/12 00:49:58;;;;;;;6.32;3.47;;;11.00;99.90;;;;;;5177094;28;20033;-59
2023/10/12 00:52:52;;;;;;;5.63;3.38;;;11.10;99.90;;;;;;5161905;28;20034;-59
2023/10/12 00:55:37;;;;;;;10.10;3.08;;;11.00;99.90;;;;;;5194165;28;20081;-59
2023/10/12 00:58:14;;;;;;;;;;;10.90;99.90;;;;;;5146846;28;20041;-59
2023/10/12 01:03:35;;;;;;;6.68;3.38;;;10.90;99.90;;;;;;5198687;23;20050;-66
2023/10/12 01:08:47;;;;;;;8.38;2.97;;;10.90;99.90;;;;;;5159954;28;20133;-63
2023/10/12 01:11:25;;;;;;;6.13;2.90;;;10.90;99.90;;;;;;5152214;28;20046;-70
2023/10/12 01:16:54;;;;;;;10.95;5.53;;;10.90;99.90;;;;;;5159071;28;20034;-65
2023/10/12 01:19:44;;;;;;;7.53;3.80;;;10.90;99.90;;;;;;5150286;28;20049;-62
2023/10/12 01:22:25;;;;;;;5.95;4.60;;;11.00;99.90;;;;;;5148224;28;20049;-65
2023/10/12 01:24:59;;;;;;;6.40;5.00;;;11.00;99.90;;;;;;5114486;28;20046;-64
2023/10/12 01:27:31;;;;;;;10.90;4.35;;;11.00;99.90;;;;;;5142318;28;20479;-66
2023/10/12 01:30:27;;;;;;;5.60;3.15;;;11.10;99.90;;;;;;5132249;28;20057;-67
2023/10/12 01:33:02;;;;;;;11.20;3.70;;;11.00;99.90;;;;;;5134189;28;20104;-62
2023/10/12 01:35:38;;;;;;;6.68;3.05;;;10.90;99.90;;;;;;5108247;28;20045;-66
2023/10/12 01:38:14;;;;;;;10.00;2.88;;;10.80;99.90;;;;;;5148965;28;20052;-65
2023/10/12 01:43:27;;;;;;;8.73;3.55;;;10.90;99.90;;;;;;5139507;28;20039;-65
2023/10/12 01:46:08;;;;;;;6.40;3.00;;;10.90;99.90;;;;;;5145708;28;20037;-62
2023/10/12 01:48:49;;;;;;;7.20;3.00;;;10.80;99.90;;;;;;5112675;28;20038;-68
2023/10/12 01:51:24;;;;;;;7.57;3.15;;;10.80;99.90;;;;;;5144322;28;20334;-65
2023/10/12 01:53:57;;;;;;;6.75;3.03;;;10.80;99.90;;;;;;5151933;28;20037;-66
2023/10/12 01:56:34;;;;;;;4.70;3.10;;;10.80;99.90;;;;;;5117615;28;20246;-63
2023/10/12 01:59:06;;;;;;;5.80;3.00;;;10.80;99.90;;;;;;5141779;28;20034;-63
2023/10/12 02:02:14;;;;;;;7.47;3.15;;;10.70;99.90;;;;;;5169918;28;20080;-65
2023/10/12 02:04:47;;;;;;;4.70;2.97;;;10.70;99.90;;;;;;5173900;28;20041;-62
2023/10/12 02:07:18;;;;;;;6.55;3.33;;;10.70;99.90;;;;;;5158220;28;20505;-65
2023/10/12 02:09:50;;;;;;;4.38;2.75;;;10.60;99.90;;;;;;5138804;28;20042;-65
2023/10/12 02:12:26;;;;;;;7.20;3.28;;;10.60;99.90;;;;;;5170473;28;20076;-65
2023/10/12 02:15:01;;;;;;;9.10;2.80;;;10.70;99.90;;;;;;5119055;28;20354;-64
2023/10/12 02:17:36;;;;;;;6.07;2.78;;;10.70;99.90;;;;;;5141306;28;20052;-64
2023/10/12 02:20:11;;;;;;;8.80;2.95;;;10.70;99.90;;;;;;5120995;28;20262;-65
2023/10/12 02:22:52;;;;;;;6.07;3.70;;;10.80;99.90;;;;;;5124215;28;20045;-63
2023/10/12 02:25:28;;;;;;;8.30;4.53;;;10.80;99.90;;;;;;5139671;28;20355;-66
2023/10/12 02:28:03;;;;;;;8.30;3.25;;;10.70;99.90;;;;;;5129443;28;20042;-66
2023/10/12 02:30:35;;;;;;;6.28;3.38;;;10.80;99.90;;;;;;5149086;28;20065;-62
2023/10/12 02:33:12;;;;;;;6.30;2.95;;;10.70;99.90;;;;;;5157226;28;20038;-65
2023/10/12 02:35:46;;;;;;;7.97;3.20;;;10.70;99.90;;;;;;5148444;28;20215;-63
2023/10/12 02:38:27;;;;;;;4.53;3.33;;;10.70;99.90;;;;;;5137541;28;20116;-64
2023/10/12 02:41:02;;;;;;;5.43;2.72;;;10.70;99.90;;;;;;5155942;28;20042;-65
2023/10/12 02:43:37;;;;;;;4.30;3.13;;;10.70;99.90;;;;;;5122465;28;20518;-64
2023/10/12 02:46:22;;;;;;;6.75;2.70;;;10.70;99.90;;;;;;5169300;28;20030;-67
2023/10/12 02:48:53;;;;;;;;;;;10.70;99.90;;;;;;5152588;28;20597;-65
2023/10/12 02:51:29;;;;;;;5.20;2.75;;;10.60;99.90;;;;;;5122914;28;19922;-65
2023/10/12 02:54:04;;;;;;;6.90;2.33;;;10.60;99.90;;;;;;5113643;28;20149;-66
2023/10/12 02:56:36;;;;;;;5.88;2.80;;;10.60;99.90;;;;;;5148054;28;20042;-64
2023/10/12 02:59:10;;;;;;;11.57;3.22;;;10.60;99.90;;;;;;5150412;28;20502;-65
2023/10/12 03:01:42;;;;;;;5.50;2.88;;;10.50;99.90;;;;;;5117949;28;20502;-64
2023/10/12 03:04:13;;;;;;;5.80;2.90;;;10.40;99.90;;;;;;5149881;28;20041;-66
2023/10/12 03:06:57;;;;;;;4.15;2.92;;;10.40;99.90;;;;;;5171752;28;20102;-63
2023/10/12 03:09:36;;;;;;;4.75;3.53;;;10.50;99.90;;;;;;5154591;28;20533;-67
2023/10/12 03:12:09;;;;;;;6.43;3.60;;;10.40;99.90;;;;;;5119468;28;20138;-62
2023/10/12 03:14:51;;;;;;;11.32;3.38;;;10.50;99.90;;;;;;5153817;28;20034;-65
2023/10/12 03:17:26;;;;;;;4.63;2.92;;;10.30;99.90;;;;;;5120715;28;20282;-65
2023/10/12 03:20:22;;;;;;;6.00;2.65;;;10.30;99.90;;;;;;5117425;28;20053;-64
2023/10/12 03:23:13;;;;;;;7.22;3.00;;;10.40;99.90;;;;;;5114581;28;20061;-65
2023/10/12 03:25:51;;;;;;;4.45;3.03;;;10.50;99.90;;;;;;5149945;28;20490;-66
2023/10/12 03:28:43;;;;;;;6.30;3.10;;;10.50;99.90;;;;;;5136476;28;20495;-65
2023/10/12 03:33:57;;;;;;;4.95;2.97;;;10.50;99.90;;;;;;5170900;28;20044;-65
2023/10/12 03:36:33;;;;;;;5.55;3.13;;;10.40;99.90;;;;;;5104515;28;20060;-67
2023/10/12 03:42:09;;;;;;;10.18;3.55;;;10.30;99.90;;;;;;5172281;28;20038;-64
2023/10/12 03:50:05;;;;;;;6.97;3.38;;;10.50;99.90;;;;;;5170612;28;20406;-66
2023/10/12 03:52:40;;;;;;;8.90;3.63;;;10.70;99.90;;;;;;5133343;28;20034;-66
2023/10/12 03:55:28;;;;;;;7.85;3.70;;;10.70;99.90;;;;;;5111791;28;20458;-63
2023/10/12 04:00:48;;;;;;;8.63;3.88;;;10.50;99.90;;;;;;5129988;28;20034;-66
2023/10/12 04:03:21;;;;;;;4.30;3.20;;;10.50;99.90;;;;;;5137759;28;20042;-65
2023/10/12 04:05:56;;;;;;;9.77;3.75;;;10.60;99.90;;;;;;5152830;28;20038;-65
2023/10/12 04:21:39;;;;;;;6.10;3.33;;;10.10;99.90;;;;;;5135146;28;20510;-65
2023/10/12 04:30:18;;;;;;;5.30;3.15;;;10.00;99.90;;;;;;5124489;28;20031;-66
2023/10/12 04:32:57;;;;;;;5.88;3.60;;;10.30;99.90;;;;;;5165167;28;20094;-67
2023/10/12 04:44:06;;;;;;;5.57;3.53;;;10.00;99.90;;;;;;5103653;28;20049;-65
2023/10/12 04:46:47;;;;;;;8.75;3.40;;;10.10;99.90;;;;;;5150692;28;20060;-67
2023/10/12 04:52:12;;;;;;;7.68;3.45;;;10.10;99.90;;;;;;5129719;28;20102;-64
2023/10/12 04:54:59;;;;;;;11.90;3.53;;;10.10;99.90;;;;;;5147733;28;20038;-63
2023/10/12 04:57:34;;;;;;;6.75;3.35;;;9.90;99.90;;;;;;5163188;28;20605;-63
2023/10/12 05:00:47;;;;;;;4.97;3.75;;;9.90;99.90;;;;;;5148418;28;20562;-64
2023/10/12 05:03:26;;;;;;;10.95;4.50;;;9.90;99.90;;;;;;5166696;28;20078;-64
2023/10/12 05:06:08;;;;;;;7.72;3.83;;;9.80;99.90;;;;;;5121738;28;20046;-63
2023/10/12 05:08:40;;;;;;;6.22;3.30;;;9.80;99.90;;;;;;5143919;28;20064;-66
2023/10/12 05:11:21;;;;;;;6.38;3.70;;;9.80;99.90;;;;;;5169578;28;20030;-63
2023/10/12 05:13:53;;;;;;;11.75;4.95;;;9.80;99.90;;;;;;5154627;28;20041;-62
2023/10/12 05:16:30;;;;;;;4.47;3.00;;;9.80;99.90;;;;;;5151041;28;20041;-62
2023/10/12 05:19:02;;;;;;;5.68;2.78;;;9.80;99.90;;;;;;5149765;28;20402;-64
2023/10/12 05:21:33;;;;;;;10.02;3.35;;;9.80;99.90;;;;;;5164462;28;20058;-59
2023/10/12 05:24:08;;;;;;;5.95;2.95;;;9.80;99.90;;;;;;5136947;28;20038;-63
2023/10/12 05:26:51;;;;;;;8.05;4.07;;;9.80;99.90;;;;;;5134838;28;20034;-64
2023/10/12 05:32:06;;;;;;;9.93;3.35;;;9.80;99.90;;;;;;5148232;28;20189;-64
2023/10/12 05:37:24;;;;;;;9.55;4.00;;;9.90;99.90;;;;;;5150745;28;20563;-63
2023/10/12 05:39:59;;;;;;;8.02;3.70;;;9.90;99.90;;;;;;5149894;28;20360;-64
2023/10/12 05:42:39;;;;;;;6.50;3.20;;;10.00;99.90;;;;;;5153361;28;20045;-61
2023/10/12 05:45:27;;;;;;;8.65;4.13;;;10.20;99.90;;;;;;5151670;28;20037;-62
2023/10/12 05:47:58;;;;;;;7.60;3.63;;;10.30;99.90;;;;;;5146284;28;20046;-63
2023/10/12 05:50:57;;;;;;;7.47;3.83;;;10.40;99.90;;;;;;5157104;28;20469;-62
2023/10/12 05:53:34;;;;;;;15.50;3.97;;;10.60;99.90;;;;;;5151165;28;20038;-62
2023/10/12 05:56:06;;;;;;;13.75;4.45;;;10.70;99.90;;;;;;5110534;28;20604;-64
2023/10/12 05:58:43;;;;;;;8.45;4.03;;;10.80;99.90;;;;;;5158244;28;20045;-62
2023/10/12 06:01:32;;;;;;;6.10;4.20;;;10.90;99.90;;;;;;5130404;28;20053;-64
2023/10/12 06:04:06;;;;;;;8.88;4.32;;;10.90;99.90;;;;;;5157574;28;20226;-63
2023/10/12 06:06:41;;;;;;;14.73;4.93;;;11.10;99.90;;;;;;5156066;28;20033;-62
2023/10/12 06:09:56;;;;;;;5.47;4.18;;;11.10;99.90;;;;;;5171585;28;20044;-64
2023/10/12 06:12:11;;;;;;;5.07;3.40;;;11.30;99.90;;;;;;5146845;28;20273;-62
2023/10/12 06:14:53;;;;;;;7.70;4.30;;;11.50;99.90;;;;;;5155954;28;20157;-61
2023/10/12 06:17:39;;;;;;;8.55;4.30;;;11.50;99.90;;;;;;5137189;28;20137;-65
2023/10/12 06:20:11;;;;;;;8.77;3.92;;;11.70;99.90;;;;;;5157856;28;20215;-62
2023/10/12 06:22:47;;;;;;;8.13;4.15;;;11.90;99.90;;;;;;5155192;28;20041;-64
2023/10/12 06:25:18;;;;;;;6.78;4.93;;;12.00;99.90;;;;;;5138023;28;20559;-64
2023/10/12 06:27:55;;;;;;;6.88;3.97;;;12.20;99.90;;;;;;5162797;28;20604;-63
2023/10/12 06:30:29;;;;;;;6.00;4.05;;;12.40;99.90;;;;;;5107196;28;20034;-63
2023/10/12 06:33:03;;;;;;;4.35;3.45;;;12.60;99.90;;;;;;5150076;28;20248;-62
2023/10/12 06:35:39;;;;;;;8.15;3.60;;;12.80;99.90;;;;;;5136127;28;20121;-66
2023/10/12 06:38:22;;;;;;;7.35;3.53;;;13.00;99.90;;;;;;5133881;28;20056;-65
2023/10/12 06:41:28;;;;;;;12.88;4.20;;;13.20;99.90;;;;;;5154210;28;20045;-65
2023/10/12 06:43:58;;;;;;;5.85;3.45;;;13.30;99.90;;;;;;5173933;28;20616;-66
2023/10/12 06:46:43;;;;;;;5.88;3.45;;;13.40;99.90;;;;;;5170769;28;20175;-65
2023/10/12 06:49:29;;;;;;;7.28;3.33;;;13.60;99.90;;;;;;5157651;28;20281;-63
2023/10/12 06:52:09;;;;;;;6.88;3.78;;;13.70;99.90;;;;;;5157013;28;20384;-65
2023/10/12 06:54:49;;;;;;;7.18;3.60;;;13.90;99.90;;;;;;5140269;28;20034;-63
2023/10/12 06:57:32;;;;;;;6.05;2.85;;;14.00;99.90;;;;;;5127157;28;20045;-64
2023/10/12 07:02:42;;;;;;;6.38;3.83;;;14.30;99.90;;;;;;5148386;28;20061;-63
2023/10/12 07:05:20;;;;;;;7.88;3.40;;;14.30;99.90;;;;;;5150410;28;20231;-63
2023/10/12 07:07:51;;;;;;;10.05;4.10;;;14.40;99.90;;;;;;5134577;28;20042;-63
2023/10/12 07:10:28;;;;;;;6.30;3.97;;;14.50;99.90;;;;;;5163972;28;20215;-65
2023/10/12 07:13:03;;;;;;;6.50;3.53;;;14.60;51.40;;;;;;5149719;28;20037;-63
2023/10/12 07:15:40;;;;;;;8.88;3.42;;;14.70;99.90;;;;;;5110996;28;20282;-63
2023/10/12 07:18:16;;;;;;;9.18;3.30;;;14.90;99.90;;;;;;5135632;28;20033;-63
2023/10/12 07:20:50;;;;;;;7.00;4.53;;;15.10;99.90;;;;;;5151670;28;20219;-64
2023/10/12 07:23:34;;;;;;;6.88;3.95;;;15.20;99.90;;;;;;5171278;28;20029;-65
2023/10/12 07:26:13;;;;;;;9.52;3.60;;;15.30;1.00;;;;;;5152509;28;20042;-70
2023/10/12 07:28:49;;;;;;;6.93;4.57;;;15.50;1.00;;;;;;5164133;28;20042;-64
2023/10/12 07:31:38;;;;;;;7.68;3.55;;;15.70;1.00;;;;;;5150005;28;20038;-66
2023/10/12 07:34:19;;;;;;;8.95;4.38;;;15.90;1.00;;;;;;5138357;28;20034;-68
2023/10/12 07:36:57;;;;;;;10.05;4.20;;;16.20;1.00;;;;;;5142570;28;20034;-68
2023/10/12 07:39:42;;;;;;;7.30;4.05;;;16.40;1.00;;;;;;5152092;28;20030;-67
2023/10/12 07:42:25;;;;;;;6.82;3.78;;;16.40;1.00;;;;;;5149448;28;20044;-67
2023/10/12 07:44:59;;;;;;;8.43;4.55;;;16.50;1.00;;;;;;5121059;28;20042;-65
2023/10/12 07:47:40;;;;;;;7.55;4.47;;;16.40;1.00;;;;;;5158536;28;20360;-65
2023/10/12 07:50:25;;;;;;;5.88;4.15;;;16.60;1.00;;;;;;5169303;28;20033;-65
2023/10/12 07:53:07;;;;;;;;;;;16.80;1.00;;;;;;5157231;28;20227;-67
2023/10/12 07:55:41;;;;;;;6.57;3.80;;;16.90;1.00;;;;;;5166322;28;19916;-67
2023/10/12 07:58:13;;;;;;;9.60;4.50;;;17.20;1.00;;;;;;5164355;28;20345;-67
2023/10/12 08:01:02;;;;;;;12.32;4.68;;;17.40;1.00;;;;;;5164048;28;20038;-65
2023/10/12 08:03:41;;;;;;;9.85;4.35;;;17.50;1.00;;;;;;5148972;28;20473;-70
2023/10/12 08:06:17;;;;;;;8.35;4.32;;;17.70;1.00;;;;;;5136588;28;20042;-64
2023/10/12 08:08:48;;;;;;;5.05;3.75;;;18.00;99.90;;;;;;5166874;28;20064;-68
2023/10/12 08:11:27;;;;;;;8.23;4.32;;;18.20;99.90;;;;;;5158593;28;20042;-68
2023/10/12 08:14:09;;;;;;;7.18;4.07;;;18.00;99.90;;;;;;5140364;28;20056;-65
2023/10/12 08:16:43;;;;;;;6.72;4.32;;;17.70;90.20;;;;;;5169454;28;20036;-68
2023/10/12 08:19:28;;;;;;;10.75;4.03;;;17.60;1.00;;;;;;5121923;28;20037;-63
2023/10/12 08:22:09;;;;;;;5.93;4.78;;;17.80;99.90;;;;;;5148481;28;20032;-65
2023/10/12 08:24:40;;;;;;;8.20;4.93;;;17.90;1.00;;;;;;5153843;28;20153;-68
2023/10/12 08:27:18;;;;;;;8.82;4.00;;;18.10;99.90;;;;;;5169156;28;20042;-68
2023/10/12 08:32:29;;;;;;;11.30;4.07;;;18.60;1.00;;;;;;5168866;28;20467;-64
2023/10/12 08:37:49;;;;;;;5.90;3.90;;;19.00;99.90;;;;;;5169444;28;20196;-62
2023/10/12 08:40:22;;;;;;;7.45;4.13;;;19.00;1.00;;;;;;5152933;28;20038;-71
2023/10/12 08:42:55;;;;;;;7.97;4.10;;;18.90;99.90;;;;;;5152444;28;20025;-66
2023/10/12 08:45:29;;;;;;;11.38;3.78;;;18.80;99.90;;;;;;5149282;28;20372;-64
2023/10/12 08:48:04;;;;;;;;;;;18.80;99.90;;;;;;5124158;28;20038;-67
2023/10/12 08:50:58;;;;;;;7.70;3.72;;;18.80;1.00;;;;;;5170245;28;19913;-64
2023/10/12 08:53:31;;;;;;;10.82;4.38;;;19.10;1.00;;;;;;5156824;28;20246;-64
2023/10/12 08:56:11;;;;;;;10.48;3.97;;;19.40;99.90;;;;;;5142153;28;20327;-65
2023/10/12 08:58:51;;;;;;;12.73;3.95;;;19.60;99.90;;;;;;5121881;28;20071;-64
2023/10/12 09:01:23;;;;;;;10.38;4.57;;;19.30;1.00;;;;;;5145583;28;20057;-66
2023/10/12 09:04:03;;;;;;;6.75;4.45;;;19.80;1.00;;;;;;5158684;28;20040;-65
2023/10/12 09:09:06;;;;;;;8.27;4.55;;;20.50;1.00;;;;;;5150707;28;20401;-67
2023/10/12 09:11:38;;;;;;;8.55;3.80;;;20.70;1.00;;;;;;5154161;28;20309;-68
2023/10/12 09:14:23;;;;;;;8.55;5.15;;;20.90;1.00;;;;;;5129924;28;20069;-67
2023/10/12 09:16:55;;;;;;;12.65;4.78;;;21.30;99.90;;;;;;5131748;28;20376;-68
2023/10/12 09:19:31;;;;;;;6.55;3.58;;;21.60;99.90;;;;;;5151300;28;20030;-68
2023/10/12 09:22:04;;;;;;;6.05;3.97;;;21.50;99.90;;;;;;5152075;28;20437;-69
2023/10/12 09:24:36;;;;;;;7.47;3.40;;;21.70;51.20;;;;;;5157567;28;20365;-67
2023/10/12 09:27:13;;;;;;;6.20;3.45;;;22.10;99.90;;;;;;5156307;28;20055;-70
2023/10/12 09:30:01;;;;;;;8.77;3.95;;;22.40;99.90;;;;;;5134695;28;20041;-69
2023/10/12 09:32:35;;;;;;;8.82;4.10;;;22.60;56.20;;;;;;5154546;28;20132;-68
2023/10/12 09:35:19;;;;;;;6.05;3.15;;;23.00;19.60;;;;;;5155894;28;20353;-66
2023/10/12 09:37:53;;;;;;;13.48;4.32;;;23.40;1.00;;;;;;5140508;28;20045;-68
2023/10/12 09:40:42;;;;;;;7.57;3.95;;;23.20;1.00;;;;;;5122845;28;20057;-65
2023/10/12 09:43:15;;;;;;;7.93;3.30;;;23.30;1.00;;;;;;5152232;28;20340;-67
2023/10/12 09:45:55;;;;;;;5.20;3.85;;;23.80;1.00;;;;;;5103219;28;20354;-64
2023/10/12 09:48:29;;;;;;;4.20;3.38;;;24.60;1.00;;;;;;5135480;28;20041;-70
2023/10/12 09:51:07;;;;;;;6.20;4.45;;;24.90;99.90;;;;;;5157109;28;20059;-66
2023/10/12 09:53:53;;;;;;;6.68;3.30;;;25.50;99.90;;;;;;5140267;28;20167;-68
2023/10/12 09:56:44;;;;;;;14.90;4.43;;;25.90;99.90;;;;;;5171822;28;20050;-70
2023/10/12 09:59:20;;;;;;;7.28;3.58;;;26.30;99.90;;;;;;5133160;28;20038;-65
2023/10/12 10:02:01;;;;;;;5.68;3.67;;;26.80;81.70;;;;;;5149118;28;20136;-66
2023/10/12 10:04:41;;;;;;;5.72;3.63;;;27.30;99.90;;;;;;5134006;28;20048;-67
2023/10/12 10:07:32;;;;;;;4.60;3.78;;;27.40;99.90;;;;;;5135055;28;20034;-70
2023/10/12 10:10:30;;;;;;;5.85;3.67;;;27.70;99.90;;;;;;5156781;28;20208;-68
2023/10/12 10:13:04;;;;;;;6.82;3.92;;;27.90;1.00;;;;;;5173916;28;20274;-68
2023/10/12 10:15:55;;;;;;;6.30;3.50;;;28.10;99.90;;;;;;5153571;28;20025;-65
2023/10/12 10:18:33;;;;;;;6.32;3.70;;;28.10;1.00;;;;;;5158420;28;20063;-67
2023/10/12 10:21:07;;;;;;;6.65;3.20;;;28.50;1.00;;;;;;5171063;28;20030;-69
2023/10/12 10:23:52;;;;;;;5.93;3.50;;;28.80;1.00;;;;;;5139566;28;20141;-65
2023/10/12 10:26:34;;;;;;;7.13;3.47;;;26.60;99.90;;;;;;5158442;28;20272;-68
2023/10/12 10:29:05;;;;;;;5.30;3.63;;;26.10;99.90;;;;;;5142319;28;20034;-69
2023/10/12 10:31:46;;;;;;;5.47;3.65;;;27.10;1.00;;;;;;5150503;28;20034;-67
2023/10/12 10:34:23;;;;;;;8.13;3.38;;;28.00;1.00;;;;;;5189592;28;20053;-70
2023/10/12 10:36:58;;;;;;;10.30;3.90;;;28.10;99.90;;;;;;5154842;28;20099;-67
2023/10/12 10:39:32;;;;;;;8.90;3.53;;;29.30;1.00;;;;;;5147468;28;20042;-69
2023/10/12 10:42:08;;;;;;;;;;;28.00;1.00;;;;;;5131961;28;20038;-67
2023/10/12 10:44:41;;;;;;;12.93;3.90;;;27.70;1.00;;;;;;5172792;28;19928;-68
2023/10/12 10:47:15;;;;;;;10.18;3.92;;;27.60;99.90;;;;;;5131933;28;20046;-67
2023/10/12 10:49:48;;;;;;;5.10;3.40;;;28.00;99.90;;;;;;5144432;28;20044;-67
2023/10/12 10:52:21;;;;;;;4.93;3.30;;;27.40;99.90;;;;;;5139416;28;20502;-68
2023/10/12 10:54:59;;;;;;;6.18;2.85;;;28.90;1.00;;;;;;5172859;28;20052;-72
2023/10/12 10:57:37;;;;;;;5.13;3.38;;;30.10;1.00;;;;;;5152581;28;20056;-68
2023/10/12 11:00:16;;;;;;;7.53;3.67;;;31.50;1.00;;;;;;5137962;28;20064;-66
2023/10/12 11:03:08;;;;;;;4.40;3.25;;;31.10;99.90;;;;;;5129285;28;20120;-69
2023/10/12 11:05:40;;;;;;;4.85;3.20;;;31.40;99.90;;;;;;5172816;28;20045;-69
2023/10/12 11:08:21;;;;;;;5.07;3.55;;;32.60;47.40;;;;;;5157430;28;20026;-66
2023/10/12 11:13:39;;;;;;;4.30;3.03;;;31.60;1.00;;;;;;5155360;28;20122;-70
2023/10/12 11:16:20;;;;;;;5.30;3.25;;;32.30;1.00;;;;;;5154356;28;20030;-69
2023/10/12 11:18:52;;;;;;;7.32;3.38;;;31.10;1.00;;;;;;5145922;28;20046;-67
2023/10/12 11:21:25;;;;;;;7.18;3.40;;;31.30;1.00;;;;;;5144559;28;20034;-68
2023/10/12 11:24:09;;;;;;;6.03;2.75;;;32.00;1.00;;;;;;5136013;28;20261;-67
2023/10/12 11:26:54;;;;;;;5.77;3.63;;;32.00;1.00;;;;;;5133451;28;20056;-70
2023/10/12 11:29:26;;;;;;;5.20;3.25;;;32.70;99.90;;;;;;5148064;28;20052;-68
2023/10/12 11:32:16;;;;;;;3.55;2.75;;;32.60;1.00;;;;;;5147570;28;20044;-68
2023/10/12 11:34:52;;;;;;;5.80;3.40;;;32.50;99.90;;;;;;5156095;28;20029;-67
2023/10/12 11:37:26;;;;;;;3.17;2.90;;;33.10;99.90;;;;;;5141970;28;20038;-64
2023/10/12 11:39:59;;;;;;;4.85;3.10;;;33.70;1.00;;;;;;5152050;28;20052;-69
2023/10/12 11:42:30;;;;;;;9.38;3.08;;;33.80;1.00;;;;;;5120306;28;20053;-68
2023/10/12 11:45:07;;;;;;;7.18;2.97;;;33.70;1.00;;;;;;5129915;28;20037;-66
2023/10/12 11:47:38;;;;;;;4.55;3.20;;;33.80;1.00;;;;;;5148420;28;20042;-69
2023/10/12 11:50:13;;;;;;;5.25;2.83;;;34.30;99.90;;;;;;5152115;28;20081;-70
2023/10/12 11:52:50;;;;;;;3.65;1.80;;;34.50;99.90;;;;;;5148838;28;20041;-67
2023/10/12 11:55:27;;;;;;;3.13;1.98;;;32.90;1.00;;;;;;5163412;28;20061;-69
2023/10/12 11:57:59;;;;;;;4.47;2.10;;;32.70;2.30;;;;;;5129690;28;20046;-69
2023/10/12 12:00:37;;;;;;;2.92;1.73;;;33.30;99.90;;;;;;5158815;28;20026;-68
2023/10/12 12:03:08;;;;;;;2.45;1.83;;;33.70;99.90;;;;;;5154560;28;20430;-68
2023/10/12 12:05:43;;;;;;;3.97;2.17;;;33.70;30.50;;;;;;5144748;28;20045;-64
2023/10/12 12:08:15;;;;;;;2.92;1.80;;;34.00;99.90;;;;;;5159559;28;20045;-68
2023/10/12 12:13:23;;;;;;;4.50;2.65;;;35.10;1.00;;;;;;5137053;28;20034;-66
2023/10/12 12:15:57;;;;;;;9.55;2.40;;;33.80;6.80;;;;;;5129841;28;20227;-67
2023/10/12 12:18:29;;;;;;;3.72;1.75;;;32.40;99.90;;;;;;5130554;28;20342;-69
2023/10/12 12:21:04;;;;;;;2.50;1.80;;;31.80;99.90;;;;;;5162504;28;20031;-70
2023/10/12 12:23:40;;;;;;;3.97;2.10;;;30.50;99.90;;;;;;5128659;28;21128;-70
2023/10/12 12:26:14;;;;;;;4.75;2.08;;;29.90;99.90;;;;;;5137736;28;20034;-67
2023/10/12 12:28:45;;;;;;;4.25;2.25;;;31.20;99.90;;;;;;5163240;28;20022;-68
2023/10/12 12:31:20;;;;;;;4.40;2.17;;;31.40;28.10;;;;;;5114252;28;20511;-68
2023/10/12 12:33:52;;;;;;;3.67;1.83;;;31.50;99.90;;;;;;5162606;28;20037;-69
2023/10/12 12:36:23;;;;;;;3.53;1.85;;;31.70;99.90;;;;;;5117751;28;20044;-66
2023/10/12 12:38:59;;;;;;;4.68;1.98;;;30.90;99.90;;;;;;5162428;28;20026;-65
2023/10/12 12:41:36;;;;;;;4.55;2.15;;;30.00;1.00;;;;;;5133694;28;20041;-67
2023/10/12 12:44:10;;;;;;;6.35;2.38;;;29.90;1.00;;;;;;5132405;28;20042;-68
2023/10/12 12:46:44;;;;;;;3.83;1.70;;;30.30;99.90;;;;;;5154406;28;20494;-67
2023/10/12 12:49:16;;;;;;;3.65;1.95;;;31.30;99.90;;;;;;5160805;28;20063;-67
2023/10/12 12:51:49;;;;;;;7.07;2.20;;;31.90;99.90;;;;;;5142226;28;20041;-70
2023/10/12 12:54:21;;;;;;;5.10;2.17;;;32.00;99.90;;;;;;5160248;28;20183;-66
2023/10/12 12:56:58;;;;;;;3.92;2.45;;;31.90;99.90;;;;;;5150356;28;20149;-70
2023/10/12 12:59:29;;;;;;;4.95;2.38;;;31.80;99.90;;;;;;5140331;28;20049;-68
2023/10/12 13:02:04;;;;;;;2.83;2.08;;;31.00;99.90;;;;;;5144997;28;20384;-68
2023/10/12 13:04:37;;;;;;;4.20;2.38;;;31.30;1.00;;;;;;5146384;28;20563;-71
2023/10/12 13:07:28;;;;;;;4.00;2.40;;;31.70;1.00;;;;;;5137833;28;20041;-71
2023/10/12 13:10:02;;;;;;;3.15;2.38;;;31.90;1.00;;;;;;5160826;28;20214;-67
2023/10/12 13:12:36;;;;;;;6.20;2.53;;;32.10;1.00;;;;;;5139225;28;20363;-69
2023/10/12 13:15:19;;;;;;;5.05;2.40;;;32.50;1.00;;;;;;5146154;28;20037;-66
2023/10/12 13:17:57;;;;;;;6.32;1.98;;;33.10;1.00;;;;;;5122876;28;20049;-71
2023/10/12 13:20:31;;;;;;;3.33;2.00;;;33.60;1.00;;;;;;5133050;28;20043;-69
2023/10/12 13:23:02;;;;;;;;;;;32.50;1.00;;;;;;5154711;28;20397;-70
2023/10/12 13:25:35;;;;;;;11.45;2.30;;;31.70;1.00;;;;;;5164092;28;19909;-67
2023/10/12 13:28:10;;;;;;;7.60;2.22;;;30.30;1.00;;;;;;5140379;28;20037;-66
2023/10/12 13:30:44;;;;;;;5.00;2.25;;;28.80;1.00;;;;;;5143275;28;20080;-70
2023/10/12 13:33:16;;;;;;;3.90;2.22;;;27.40;1.00;;;;;;5150973;28;20053;-72
2023/10/12 13:35:54;;;;;;;3.70;2.42;;;26.60;1.00;;;;;;5162481;28;20327;-66
2023/10/12 13:38:31;;;;;;;6.15;2.20;;;26.40;1.00;;;;;;5142628;28;20042;-64
2023/10/12 13:41:05;;;;;;;3.58;2.45;;;26.20;1.00;;;;;;5132220;28;20038;-71
2023/10/12 13:43:38;;;;;;;3.63;3.03;;;26.10;1.00;;;;;;5134710;28;20436;-70
2023/10/12 13:46:12;;;;;;;3.95;2.13;;;26.00;1.00;;;;;;5132625;28;20042;-69
2023/10/12 13:48:49;;;;;;;3.03;2.22;;;25.90;1.00;;;;;;5134438;28;20258;-65
2023/10/12 13:51:31;;;;;;;7.50;3.00;;;25.70;1.00;;;;;;5112400;28;20052;-69
2023/10/12 13:54:10;;;;;;;5.32;2.45;;;25.50;1.00;;;;;;5130188;28;20367;-69
2023/10/12 13:56:48;;;;;;;4.82;2.10;;;25.40;1.00;;;;;;5137016;28;20447;-69
2023/10/12 13:59:23;;;;;;;4.50;2.38;;;25.40;1.00;;;;;;5136399;28;20038;-67
2023/10/12 14:01:56;;;;;;;6.07;2.97;;;25.40;1.00;;;;;;5155854;28;20045;-68
2023/10/12 14:04:33;;;;;;;2.40;2.20;;;25.40;1.00;;;;;;5148971;28;20462;-68
2023/10/12 14:07:05;;;;;;;4.80;2.13;;;25.50;1.00;;;;;;5115907;28;20045;-70
2023/10/12 14:09:41;;;;;;;3.20;1.98;;;25.50;1.00;;;;;;5136894;28;20038;-71
2023/10/12 14:12:16;;;;;;;3.38;1.88;;;25.30;1.00;;;;;;5155520;28;20033;-68
2023/10/12 14:14:48;;;;;;;4.05;2.20;;;25.20;1.00;;;;;;5141571;28;20383;-68
2023/10/12 14:17:24;;;;;;;5.63;2.80;;;25.10;1.00;;;;;;5158886;28;20026;-67
2023/10/12 14:19:58;;;;;;;7.28;2.78;;;25.00;99.90;;;;;;5118916;28;20046;-71
2023/10/12 14:22:34;;;;;;;6.25;2.53;;;24.90;99.90;;;;;;5144810;28;20438;-70
2023/10/12 14:25:08;;;;;;;4.82;2.50;;;25.00;1.00;;;;;;5167845;28;20039;-68
2023/10/12 14:27:42;;;;;;;5.00;2.40;;;25.20;1.00;;;;;;5151321;28;20037;-70
2023/10/12 14:30:25;;;;;;;4.35;2.45;;;25.70;1.00;;;;;;5118518;28;20073;-64
2023/10/12 14:33:02;;;;;;;4.93;2.70;;;26.10;1.00;;;;;;5137223;28;20041;-70
2023/10/12 14:35:39;;;;;;;4.13;2.28;;;25.90;1.00;;;;;;5123092;28;20056;-66
2023/10/12 14:38:17;;;;;;;4.78;2.10;;;25.40;1.00;;;;;;5133694;28;20049;-68
2023/10/12 14:40:50;;;;;;;6.95;2.10;;;25.10;1.00;;;;;;5155581;28;20038;-71
2023/10/12 14:43:23;;;;;;;7.32;3.17;;;24.60;1.00;;;;;;5146547;28;20191;-69
2023/10/12 14:45:55;;;;;;;3.70;2.20;;;24.50;1.00;;;;;;5116236;28;20027;-66
2023/10/12 14:48:27;;;;;;;5.50;2.42;;;24.50;1.00;;;;;;5136300;28;21327;-69
2023/10/12 14:51:08;;;;;;;4.00;2.25;;;24.40;99.90;;;;;;5118391;28;20741;-66
2023/10/12 14:53:41;;;;;;;4.35;2.60;;;24.40;1.00;;;;;;5161734;28;20048;-69
2023/10/12 14:56:14;;;;;;;4.38;2.60;;;24.30;1.00;;;;;;5163059;28;20034;-68
2023/10/12 14:58:49;;;;;;;5.85;2.70;;;24.30;1.00;;;;;;5119566;28;20522;-71
2023/10/12 15:01:22;;;;;;;3.10;2.70;;;24.10;1.00;;;;;;5165186;28;20041;-66
2023/10/12 15:04:02;;;;;;;5.00;2.30;;;24.00;1.00;;;;;;5137375;28;20052;-69
2023/10/12 15:06:36;;;;;;;5.68;2.90;;;23.90;1.00;;;;;;5161552;28;20036;-69